Time;durP1;ratioP1;P1;durP2;ratioP2;P2;SDS_P1;SDS_P2;PMS_P1;PMS_P2;Temp;Humidity;BMP_temperature;BMP_pressure;BME280_temperature;BME280_humidity;BME280_pressure;Samples;Min_cycle;Max_cycle;Signal;HPM_P1;HPM_P2
2021/07/07 00:01:00;;;;;;;16.55;10.07;;;;;;;;;;5020268;28;20021;-42
2021/07/07 00:03:26;;;;;;;14.45;9.75;;;;;;;;;;5020651;28;20076;-42
2021/07/07 00:05:53;;;;;;;17.77;10.02;;;;;;;;;;5029053;28;20022;-42
2021/07/07 00:08:19;;;;;;;16.15;9.35;;;;;;;;;;5033034;28;20056;-45
2021/07/07 00:10:45;;;;;;;21.67;10.00;;;;;;;;;;5031691;28;20367;-45
2021/07/07 00:13:11;;;;;;;16.02;10.50;;;;;;;;;;5032739;28;20017;-45
2021/07/07 00:15:37;;;;;;;18.58;9.65;;;;;;;;;;5032651;28;20038;-44
2021/07/07 00:18:07;;;;;;;14.27;9.65;;;;;;;;;;5032849;28;20494;-45
2021/07/07 00:20:37;;;;;;;15.43;10.18;;;;;;;;;;5032868;28;20108;-44
2021/07/07 00:23:03;;;;;;;17.08;11.07;;;;;;;;;;5032845;28;20030;-45
2021/07/07 00:25:29;;;;;;;19.92;11.07;;;;;;;;;;5032849;28;20028;-43
2021/07/07 00:27:55;;;;;;;12.60;9.75;;;;;;;;;;5032770;28;20052;-42
2021/07/07 00:30:21;;;;;;;16.90;11.30;;;;;;;;;;5032761;28;20378;-43
2021/07/07 00:32:48;;;;;;;16.33;10.52;;;;;;;;;;5032878;28;20493;-45
2021/07/07 00:35:14;;;;;;;17.85;10.73;;;;;;;;;;5032845;28;20026;-44
2021/07/07 00:37:40;;;;;;;24.45;11.68;;;;;;;;;;5032750;28;20506;-42
2021/07/07 00:40:06;;;;;;;19.15;11.48;;;;;;;;;;5034928;28;20029;-42
2021/07/07 00:42:33;;;;;;;18.88;11.13;;;;;;;;;;5051499;28;20037;-42
2021/07/07 00:44:59;;;;;;;16.40;11.05;;;;;;;;;;5036204;28;20087;-42
2021/07/07 00:47:25;;;;;;;17.92;11.63;;;;;;;;;;5036466;28;20116;-42
2021/07/07 00:49:51;;;;;;;17.05;11.52;;;;;;;;;;5035993;28;20105;-41
2021/07/07 00:52:20;;;;;;;23.30;11.85;;;;;;;;;;5036185;28;20025;-42
2021/07/07 00:54:47;;;;;;;16.48;10.57;;;;;;;;;;5036093;28;20381;-42
2021/07/07 00:57:15;;;;;;;21.50;11.45;;;;;;;;;;5035668;28;20037;-42
2021/07/07 00:59:42;;;;;;;17.42;11.38;;;;;;;;;;5036149;28;20381;-42
2021/07/07 01:02:12;;;;;;;20.10;11.70;;;;;;;;;;5035949;28;20391;-42
2021/07/07 01:04:38;;;;;;;19.25;12.18;;;;;;;;;;5035812;28;20048;-42
2021/07/07 01:07:06;;;;;;;17.00;10.45;;;;;;;;;;5034560;28;20116;-44
2021/07/07 01:09:33;;;;;;;22.20;11.50;;;;;;;;;;5035742;28;20072;-42
2021/07/07 01:11:59;;;;;;;19.15;11.20;;;;;;;;;;5035648;28;20079;-42
2021/07/07 01:14:25;;;;;;;16.85;10.75;;;;;;;;;;5035413;28;20457;-44
2021/07/07 01:16:51;;;;;;;19.90;11.38;;;;;;;;;;5035623;28;20037;-44
2021/07/07 01:19:17;;;;;;;17.33;10.60;;;;;;;;;;5035563;28;20060;-45
2021/07/07 01:21:50;;;;;;;17.80;10.63;;;;;;;;;;5035563;28;20025;-44
2021/07/07 01:24:18;;;;;;;21.52;10.10;;;;;;;;;;5035284;28;20050;-42
2021/07/07 01:26:44;;;;;;;21.00;10.38;;;;;;;;;;5035288;28;20072;-43
2021/07/07 01:29:11;;;;;;;19.17;10.30;;;;;;;;;;5035400;28;20450;-44
2021/07/07 01:31:38;;;;;;;15.52;10.68;;;;;;;;;;5035359;28;20389;-44
2021/07/07 01:34:05;;;;;;;15.85;10.23;;;;;;;;;;5035289;28;20033;-42
2021/07/07 01:36:32;;;;;;;16.80;10.13;;;;;;;;;;5035419;28;20179;-42
2021/07/07 01:38:58;;;;;;;15.23;10.10;;;;;;;;;;5035085;28;20022;-42
2021/07/07 01:41:25;;;;;;;17.55;10.20;;;;;;;;;;5035255;28;20038;-43
2021/07/07 01:43:51;;;;;;;20.42;10.18;;;;;;;;;;5035058;28;20018;-42
2021/07/07 01:46:17;;;;;;;19.77;11.30;;;;;;;;;;5035202;28;20488;-42
2021/07/07 01:48:43;;;;;;;20.05;12.18;;;;;;;;;;5034903;28;20025;-42
2021/07/07 01:51:10;;;;;;;20.55;12.85;;;;;;;;;;5035207;28;20017;-42
2021/07/07 01:53:36;;;;;;;21.85;12.63;;;;;;;;;;5034782;28;20075;-42
2021/07/07 01:56:02;;;;;;;21.77;12.15;;;;;;;;;;5034880;28;20018;-44
2021/07/07 01:58:28;;;;;;;16.92;10.65;;;;;;;;;;5034862;28;20055;-43
2021/07/07 02:00:54;;;;;;;18.70;12.02;;;;;;;;;;5034811;28;20025;-42
2021/07/07 02:03:20;;;;;;;17.50;12.40;;;;;;;;;;5034615;28;20028;-42
2021/07/07 02:05:47;;;;;;;16.00;11.55;;;;;;;;;;5034512;28;20462;-42
2021/07/07 02:08:13;;;;;;;18.80;11.32;;;;;;;;;;5034751;28;20026;-43
2021/07/07 02:10:40;;;;;;;17.80;10.50;;;;;;;;;;5034460;28;20476;-42
2021/07/07 02:13:07;;;;;;;17.17;10.75;;;;;;;;;;5034404;28;20477;-42
2021/07/07 02:15:34;;;;;;;21.48;12.40;;;;;;;;;;5034001;28;20132;-43
2021/07/07 02:18:00;;;;;;;21.30;12.15;;;;;;;;;;5034368;28;20041;-42
2021/07/07 02:20:28;;;;;;;18.23;14.02;;;;;;;;;;5034342;28;20385;-43
2021/07/07 02:22:54;;;;;;;18.33;13.80;;;;;;;;;;5034144;28;20474;-42
2021/07/07 02:25:23;;;;;;;23.23;13.60;;;;;;;;;;5034383;28;20025;-41
2021/07/07 02:27:50;;;;;;;21.58;12.93;;;;;;;;;;5034129;28;20108;-44
2021/07/07 02:30:18;;;;;;;18.33;12.75;;;;;;;;;;5034081;28;20338;-42
2021/07/07 02:32:44;;;;;;;23.13;12.98;;;;;;;;;;5034166;28;20033;-42
2021/07/07 02:35:12;;;;;;;16.55;11.68;;;;;;;;;;5034365;28;20068;-42
2021/07/07 02:37:38;;;;;;;19.90;13.48;;;;;;;;;;5033973;28;20068;-42
2021/07/07 02:40:07;;;;;;;19.85;12.70;;;;;;;;;;5034008;28;20426;-42
2021/07/07 02:42:33;;;;;;;23.45;13.57;;;;;;;;;;5033999;28;20029;-43
2021/07/07 02:45:02;;;;;;;18.00;13.30;;;;;;;;;;5034237;28;20025;-41
2021/07/07 02:47:28;;;;;;;17.88;13.40;;;;;;;;;;5034211;28;20144;-42
2021/07/07 02:49:54;;;;;;;15.65;12.38;;;;;;;;;;5033965;28;20029;-42
2021/07/07 02:52:20;;;;;;;20.55;14.43;;;;;;;;;;5033803;28;20025;-41
2021/07/07 02:54:48;;;;;;;22.17;14.25;;;;;;;;;;5033729;28;20045;-42
2021/07/07 02:57:16;;;;;;;21.02;14.15;;;;;;;;;;5033882;28;20041;-42
2021/07/07 02:59:42;;;;;;;15.57;12.23;;;;;;;;;;5033704;28;20021;-42
2021/07/07 03:02:08;;;;;;;18.55;13.30;;;;;;;;;;5033399;28;20029;-41
2021/07/07 03:04:35;;;;;;;19.38;13.65;;;;;;;;;;5033562;28;20029;-41
2021/07/07 03:07:01;;;;;;;19.15;12.57;;;;;;;;;;5033563;28;20075;-42
2021/07/07 03:09:27;;;;;;;15.02;11.48;;;;;;;;;;5033620;28;20017;-43
2021/07/07 03:11:53;;;;;;;17.42;11.82;;;;;;;;;;5033384;28;20058;-42
2021/07/07 03:14:19;;;;;;;14.93;10.88;;;;;;;;;;5033143;28;20061;-45
2021/07/07 03:16:45;;;;;;;16.52;11.23;;;;;;;;;;5033166;28;20041;-45
2021/07/07 03:19:11;;;;;;;15.18;11.48;;;;;;;;;;5033530;28;20029;-45
2021/07/07 03:21:37;;;;;;;14.50;10.65;;;;;;;;;;5033316;28;20389;-44
2021/07/07 03:24:04;;;;;;;14.07;10.18;;;;;;;;;;5033404;28;20025;-44
2021/07/07 03:26:30;;;;;;;16.13;11.50;;;;;;;;;;5033122;28;20091;-42
2021/07/07 03:28:57;;;;;;;14.02;11.05;;;;;;;;;;5033273;28;20049;-41
2021/07/07 03:31:23;;;;;;;17.50;11.95;;;;;;;;;;5033370;28;20025;-41
2021/07/07 03:33:49;;;;;;;17.40;11.60;;;;;;;;;;5033382;28;20045;-42
2021/07/07 03:36:17;;;;;;;14.68;10.73;;;;;;;;;;5033221;28;20075;-42
2021/07/07 03:38:43;;;;;;;15.73;12.45;;;;;;;;;;5033590;28;20022;-42
2021/07/07 03:41:09;;;;;;;14.70;11.77;;;;;;;;;;5033341;28;20079;-45
2021/07/07 03:43:35;;;;;;;21.33;12.38;;;;;;;;;;5033104;28;20041;-50
2021/07/07 03:46:01;;;;;;;14.90;10.20;;;;;;;;;;5033413;28;20084;-44
2021/07/07 03:48:27;;;;;;;17.42;12.23;;;;;;;;;;5033098;28;20022;-45
2021/07/07 03:50:53;;;;;;;16.80;12.23;;;;;;;;;;5033077;28;20085;-44
2021/07/07 03:53:19;;;;;;;13.18;10.45;;;;;;;;;;5033194;28;20067;-45
2021/07/07 03:55:45;;;;;;;19.45;11.38;;;;;;;;;;5032837;28;20099;-44
2021/07/07 03:58:11;;;;;;;25.77;11.65;;;;;;;;;;5032795;28;20030;-43
2021/07/07 04:00:38;;;;;;;20.35;11.73;;;;;;;;;;5032854;28;20022;-42
2021/07/07 04:03:04;;;;;;;16.38;10.70;;;;;;;;;;5032895;28;20470;-44
2021/07/07 04:05:30;;;;;;;38.65;12.60;;;;;;;;;;5032989;28;20022;-44
2021/07/07 04:07:56;;;;;;;29.05;12.45;;;;;;;;;;5033143;28;20021;-45
2021/07/07 04:10:23;;;;;;;17.70;10.77;;;;;;;;;;5032896;28;20026;-45
2021/07/07 04:12:49;;;;;;;16.35;11.55;;;;;;;;;;5032806;28;20022;-45
2021/07/07 04:15:16;;;;;;;19.92;11.55;;;;;;;;;;5034829;28;20049;-45
2021/07/07 04:17:42;;;;;;;12.55;10.43;;;;;;;;;;5036586;28;20061;-45
2021/07/07 04:20:10;;;;;;;15.18;11.05;;;;;;;;;;5036542;28;20026;-45
2021/07/07 04:22:36;;;;;;;15.38;11.57;;;;;;;;;;5035395;28;20033;-44
2021/07/07 04:25:03;;;;;;;16.98;11.27;;;;;;;;;;5036471;28;20022;-45
2021/07/07 04:27:29;;;;;;;16.52;10.93;;;;;;;;;;5051796;28;20137;-45
2021/07/07 04:29:55;;;;;;;18.02;10.50;;;;;;;;;;5036397;28;20032;-44
2021/07/07 04:32:22;;;;;;;15.25;10.27;;;;;;;;;;5036409;28;20115;-45
2021/07/07 04:34:48;;;;;;;17.25;11.32;;;;;;;;;;5036431;28;20522;-44
2021/07/07 04:37:14;;;;;;;18.35;11.82;;;;;;;;;;5036293;28;20393;-44
2021/07/07 04:39:41;;;;;;;15.75;10.43;;;;;;;;;;5051753;28;20167;-45
2021/07/07 04:42:07;;;;;;;18.10;11.18;;;;;;;;;;5035965;28;20482;-44
2021/07/07 04:44:33;;;;;;;17.73;10.93;;;;;;;;;;5035897;28;20489;-45
2021/07/07 04:47:00;;;;;;;20.20;11.32;;;;;;;;;;5036312;28;20128;-43
2021/07/07 04:49:26;;;;;;;15.90;11.75;;;;;;;;;;5036124;28;20100;-43
2021/07/07 04:51:52;;;;;;;14.85;9.98;;;;;;;;;;5036328;28;20092;-41
2021/07/07 04:54:18;;;;;;;16.88;10.38;;;;;;;;;;5035809;28;20109;-42
2021/07/07 04:56:44;;;;;;;14.43;10.93;;;;;;;;;;5035660;28;20201;-42
2021/07/07 04:59:11;;;;;;;14.23;9.80;;;;;;;;;;5035779;28;20024;-42
2021/07/07 05:01:38;;;;;;;16.50;10.32;;;;;;;;;;5036000;28;20108;-42
2021/07/07 05:04:05;;;;;;;12.95;10.05;;;;;;;;;;5035693;28;20036;-42
2021/07/07 05:06:32;;;;;;;14.20;10.23;;;;;;;;;;5035524;28;20063;-42
2021/07/07 05:08:58;;;;;;;14.27;9.95;;;;;;;;;;5035624;28;20429;-42
2021/07/07 05:11:24;;;;;;;21.92;10.23;;;;;;;;;;5035307;28;20026;-43
2021/07/07 05:13:51;;;;;;;18.70;9.50;;;;;;;;;;5035359;28;20022;-42
2021/07/07 05:16:17;;;;;;;14.75;9.40;;;;;;;;;;5035164;28;20042;-43
2021/07/07 05:18:43;;;;;;;14.75;10.10;;;;;;;;;;5035788;28;20083;-42
2021/07/07 05:21:11;;;;;;;13.75;9.48;;;;;;;;;;5035564;28;20017;-43
2021/07/07 05:23:37;;;;;;;31.92;10.52;;;;;;;;;;5035303;28;20482;-43
2021/07/07 05:26:04;;;;;;;16.90;10.07;;;;;;;;;;5034912;28;20100;-43
2021/07/07 05:28:30;;;;;;;17.30;10.13;;;;;;;;;;5035291;28;20517;-43
2021/07/07 05:31:03;;;;;;;11.48;9.23;;;;;;;;;;5035153;28;20030;-43
2021/07/07 05:33:33;;;;;;;13.63;9.20;;;;;;;;;;5033989;28;20041;-42
2021/07/07 05:35:59;;;;;;;12.03;9.30;;;;;;;;;;5035214;28;20017;-43
2021/07/07 05:38:25;;;;;;;16.30;9.05;;;;;;;;;;5034992;28;20029;-43
2021/07/07 05:40:51;;;;;;;13.63;9.15;;;;;;;;;;5034801;28;20049;-43
2021/07/07 05:43:18;;;;;;;11.20;8.55;;;;;;;;;;5034799;28;20068;-42
2021/07/07 05:45:44;;;;;;;14.77;8.82;;;;;;;;;;5034935;28;20021;-42
2021/07/07 05:48:10;;;;;;;15.07;8.68;;;;;;;;;;5034779;28;20545;-42
2021/07/07 05:50:36;;;;;;;11.60;8.93;;;;;;;;;;5034969;28;20040;-43
2021/07/07 05:53:02;;;;;;;10.55;8.75;;;;;;;;;;5033705;28;20022;-42
2021/07/07 05:55:30;;;;;;;11.02;8.35;;;;;;;;;;5034686;28;20028;-42
2021/07/07 05:57:56;;;;;;;10.85;8.43;;;;;;;;;;5034824;28;20041;-44
2021/07/07 06:00:25;;;;;;;11.10;8.38;;;;;;;;;;5034619;28;20449;-44
2021/07/07 06:02:52;;;;;;;10.63;8.35;;;;;;;;;;5034707;28;20143;-44
2021/07/07 06:05:19;;;;;;;11.00;8.25;;;;;;;;;;5034407;28;20026;-44
2021/07/07 06:07:45;;;;;;;19.75;8.45;;;;;;;;;;5034555;28;20029;-44
2021/07/07 06:10:12;;;;;;;13.93;7.68;;;;;;;;;;5034382;28;20151;-44
2021/07/07 06:12:39;;;;;;;12.07;8.07;;;;;;;;;;5034312;28;20021;-42
2021/07/07 06:15:06;;;;;;;10.77;7.70;;;;;;;;;;5034222;28;20053;-42
2021/07/07 06:17:32;;;;;;;11.55;7.65;;;;;;;;;;5034189;28;20044;-43
2021/07/07 06:19:58;;;;;;;9.55;6.43;;;;;;;;;;5034554;28;20021;-43
2021/07/07 06:22:27;;;;;;;8.10;6.80;;;;;;;;;;5033027;28;20037;-42
2021/07/07 06:24:53;;;;;;;10.50;7.20;;;;;;;;;;5034058;28;20025;-41
2021/07/07 06:27:19;;;;;;;9.80;7.40;;;;;;;;;;5034303;28;20025;-41
2021/07/07 06:29:45;;;;;;;13.82;7.07;;;;;;;;;;5034256;28;20056;-42
2021/07/07 06:32:14;;;;;;;8.48;6.15;;;;;;;;;;5034160;28;20029;-42
2021/07/07 06:34:40;;;;;;;8.60;6.70;;;;;;;;;;5034233;28;20060;-43
2021/07/07 06:37:09;;;;;;;10.23;6.50;;;;;;;;;;5033032;28;20038;-42
2021/07/07 06:39:36;;;;;;;10.50;7.20;;;;;;;;;;5033991;28;20033;-42
2021/07/07 06:42:02;;;;;;;14.32;7.43;;;;;;;;;;5033888;28;20032;-42
2021/07/07 06:44:28;;;;;;;9.27;6.97;;;;;;;;;;5034120;28;20028;-42
2021/07/07 06:46:54;;;;;;;9.75;7.40;;;;;;;;;;5033869;28;20041;-42
2021/07/07 06:49:20;;;;;;;11.10;6.03;;;;;;;;;;5033725;28;20021;-42
2021/07/07 06:51:46;;;;;;;11.30;6.50;;;;;;;;;;5033875;28;20481;-42
2021/07/07 06:54:12;;;;;;;8.55;6.63;;;;;;;;;;5033587;28;20036;-42
2021/07/07 06:56:38;;;;;;;9.55;6.75;;;;;;;;;;5033505;28;20486;-43
2021/07/07 06:59:04;;;;;;;8.55;6.50;;;;;;;;;;5033551;28;20040;-40
2021/07/07 07:01:30;;;;;;;8.13;6.20;;;;;;;;;;5033477;28;20022;-42
2021/07/07 07:03:57;;;;;;;8.75;7.32;;;;;;;;;;5032282;28;20079;-42
2021/07/07 07:06:27;;;;;;;8.75;6.88;;;;;;;;;;5033572;28;20133;-41
2021/07/07 07:08:53;;;;;;;10.48;6.78;;;;;;;;;;5033626;28;20028;-42
2021/07/07 07:11:19;;;;;;;14.57;6.47;;;;;;;;;;5033248;28;20084;-40
2021/07/07 07:13:45;;;;;;;9.70;6.75;;;;;;;;;;5033160;28;20396;-42
2021/07/07 07:16:12;;;;;;;9.00;6.15;;;;;;;;;;5031779;28;20057;-42
2021/07/07 07:18:38;;;;;;;10.98;6.80;;;;;;;;;;5033231;28;20387;-42
2021/07/07 07:21:04;;;;;;;9.10;6.40;;;;;;;;;;5033352;28;20029;-40
2021/07/07 07:23:30;;;;;;;8.77;5.82;;;;;;;;;;5033438;28;20108;-43
2021/07/07 07:25:56;;;;;;;8.00;6.07;;;;;;;;;;5033117;28;20095;-41
2021/07/07 07:28:22;;;;;;;12.52;6.50;;;;;;;;;;5033416;28;20018;-42
2021/07/07 07:30:48;;;;;;;11.05;6.28;;;;;;;;;;5033189;28;20429;-41
2021/07/07 07:33:14;;;;;;;7.00;5.78;;;;;;;;;;5033322;28;20147;-41
2021/07/07 07:35:42;;;;;;;6.25;5.25;;;;;;;;;;5033293;28;20398;-41
2021/07/07 07:38:14;;;;;;;7.80;5.95;;;;;;;;;;5033156;28;20470;-43
2021/07/07 07:40:42;;;;;;;10.55;6.30;;;;;;;;;;5033324;28;20018;-42
2021/07/07 07:43:09;;;;;;;9.13;6.05;;;;;;;;;;5033113;28;20030;-41
2021/07/07 07:45:36;;;;;;;6.32;5.72;;;;;;;;;;5033246;28;20448;-41
2021/07/07 07:48:02;;;;;;;6.68;5.75;;;;;;;;;;5036014;28;20024;-42
2021/07/07 07:50:28;;;;;;;10.50;6.00;;;;;;;;;;5045965;28;20109;-42
2021/07/07 07:52:54;;;;;;;9.40;6.38;;;;;;;;;;5037236;28;20470;-42
2021/07/07 07:55:21;;;;;;;7.88;6.53;;;;;;;;;;5036881;28;20048;-43
2021/07/07 07:57:51;;;;;;;9.07;6.70;;;;;;;;;;5040438;28;20029;-41
2021/07/07 08:00:17;;;;;;;11.25;8.45;;;;;;;;;;5049034;28;20021;-41
2021/07/07 08:02:43;;;;;;;12.52;6.15;;;;;;;;;;5038152;28;20041;-41
2021/07/07 08:05:10;;;;;;;8.07;6.22;;;;;;;;;;5036871;28;20504;-41
2021/07/07 08:07:37;;;;;;;6.55;5.47;;;;;;;;;;5036789;28;20474;-42
2021/07/07 08:10:04;;;;;;;10.50;7.57;;;;;;;;;;5043540;28;20397;-41
2021/07/07 08:12:30;;;;;;;9.50;7.47;;;;;;;;;;5044622;28;20033;-41
2021/07/07 08:14:57;;;;;;;8.45;6.70;;;;;;;;;;5036477;28;20042;-41
2021/07/07 08:17:23;;;;;;;6.97;5.55;;;;;;;;;;5036562;28;20038;-41
2021/07/07 08:19:50;;;;;;;16.80;12.55;;;;;;;;;;5039150;28;20107;-42
2021/07/07 08:22:16;;;;;;;8.88;5.95;;;;;;;;;;5045329;28;20112;-43
2021/07/07 08:24:43;;;;;;;7.07;5.70;;;;;;;;;;5036438;28;20029;-51
2021/07/07 08:27:09;;;;;;;8.50;5.45;;;;;;;;;;5036662;28;20087;-43
2021/07/07 08:29:36;;;;;;;9.15;5.82;;;;;;;;;;5036580;28;20032;-42
2021/07/07 08:32:03;;;;;;;12.15;5.45;;;;;;;;;;5047285;28;20032;-41
2021/07/07 08:34:32;;;;;;;10.23;6.60;;;;;;;;;;5036340;28;20082;-42
2021/07/07 08:36:58;;;;;;;7.93;6.68;;;;;;;;;;5036139;28;20026;-42
2021/07/07 08:39:24;;;;;;;6.78;5.85;;;;;;;;;;5035954;28;20064;-43
2021/07/07 08:41:50;;;;;;;7.03;6.32;;;;;;;;;;5044084;28;20041;-41
2021/07/07 08:44:16;;;;;;;6.13;5.53;;;;;;;;;;5042483;28;20474;-42
2021/07/07 08:46:42;;;;;;;7.53;4.75;;;;;;;;;;5046774;28;20029;-41
2021/07/07 08:49:09;;;;;;;7.30;6.43;;;;;;;;;;5054499;28;20024;-42
2021/07/07 08:51:40;;;;;;;13.52;10.70;;;;;;;;;;5054759;28;20067;-40
2021/07/07 08:54:07;;;;;;;14.32;9.10;;;;;;;;;;5047661;28;20477;-43
2021/07/07 08:56:38;;;;;;;6.30;5.63;;;;;;;;;;5035835;28;20505;-42
2021/07/07 08:59:04;;;;;;;6.22;5.63;;;;;;;;;;5035835;28;20501;-41
2021/07/07 09:01:30;;;;;;;9.38;6.55;;;;;;;;;;5034968;28;20105;-43
2021/07/07 09:03:56;;;;;;;9.90;5.80;;;;;;;;;;5035953;28;20040;-43
2021/07/07 09:06:22;;;;;;;8.77;5.60;;;;;;;;;;5035839;28;20470;-41
2021/07/07 09:08:50;;;;;;;9.38;5.13;;;;;;;;;;5035687;28;20025;-42
2021/07/07 09:11:19;;;;;;;8.80;5.82;;;;;;;;;;5035978;28;20359;-42
2021/07/07 09:13:46;;;;;;;9.68;6.80;;;;;;;;;;5035787;28;20104;-43
2021/07/07 09:16:14;;;;;;;7.95;6.28;;;;;;;;;;5035756;28;20077;-41
2021/07/07 09:18:40;;;;;;;9.48;7.53;;;;;;;;;;5035535;28;20386;-43
2021/07/07 09:21:25;;;;;;;10.75;7.55;;;;;;;;;;5035430;28;20021;-43
2021/07/07 09:23:51;;;;;;;8.00;6.85;;;;;;;;;;5035528;28;20032;-42
2021/07/07 09:26:25;;;;;;;9.68;7.35;;;;;;;;;;5035430;28;20022;-41
2021/07/07 09:28:51;;;;;;;11.38;6.22;;;;;;;;;;5035426;28;20053;-43
2021/07/07 09:31:34;;;;;;;8.15;7.25;;;;;;;;;;5035507;28;20024;-41
2021/07/07 09:34:13;;;;;;;7.38;6.68;;;;;;;;;;5035210;28;20113;-44
2021/07/07 09:36:43;;;;;;;8.98;7.35;;;;;;;;;;5035228;28;20497;-42
2021/07/07 09:39:09;;;;;;;8.47;6.93;;;;;;;;;;5035300;28;20029;-43
2021/07/07 09:41:35;;;;;;;8.43;7.63;;;;;;;;;;5035219;28;20065;-41
2021/07/07 09:44:02;;;;;;;8.32;7.35;;;;;;;;;;5035197;28;20083;-45
2021/07/07 09:46:29;;;;;;;7.57;6.47;;;;;;;;;;5033909;28;20049;-42
2021/07/07 09:48:55;;;;;;;7.10;6.40;;;;;;;;;;5035091;28;20049;-43
2021/07/07 09:51:21;;;;;;;7.68;6.78;;;;;;;;;;5035086;28;20018;-43
2021/07/07 09:53:48;;;;;;;10.60;7.20;;;;;;;;;;5035066;28;20367;-43
2021/07/07 09:56:14;;;;;;;8.63;6.07;;;;;;;;;;5033930;28;20443;-43
2021/07/07 09:58:40;;;;;;;9.18;6.93;;;;;;;;;;5034755;28;20057;-43
2021/07/07 10:01:06;;;;;;;9.48;7.45;;;;;;;;;;5034801;28;20100;-44
2021/07/07 10:03:33;;;;;;;10.65;6.88;;;;;;;;;;5034686;28;20025;-44
2021/07/07 10:06:02;;;;;;;7.85;6.78;;;;;;;;;;5034829;28;20057;-44
2021/07/07 10:08:28;;;;;;;6.85;6.10;;;;;;;;;;5034721;28;20021;-44
2021/07/07 10:10:55;;;;;;;7.00;6.32;;;;;;;;;;5034792;28;20035;-44
2021/07/07 10:13:22;;;;;;;9.57;6.75;;;;;;;;;;5034801;28;20017;-43
2021/07/07 10:15:50;;;;;;;7.50;6.70;;;;;;;;;;5034125;28;20095;-43
2021/07/07 10:18:16;;;;;;;7.43;6.55;;;;;;;;;;5033078;28;20513;-42
2021/07/07 10:20:43;;;;;;;6.60;5.93;;;;;;;;;;5034397;28;20025;-42
2021/07/07 10:23:10;;;;;;;8.93;6.50;;;;;;;;;;5034382;28;20029;-44
2021/07/07 10:25:37;;;;;;;8.82;6.40;;;;;;;;;;5034533;28;20026;-44
2021/07/07 10:28:06;;;;;;;7.93;6.28;;;;;;;;;;5034283;28;20076;-43
2021/07/07 10:31:07;;;;;;;8.20;6.65;;;;;;;;;;5034283;28;20091;-43
2021/07/07 10:33:35;;;;;;;11.48;6.28;;;;;;;;;;5012463;28;20113;-43
2021/07/07 10:36:20;;;;;;;11.93;6.85;;;;;;;;;;5012421;28;20588;-41
2021/07/07 10:39:07;;;;;;;8.40;6.40;;;;;;;;;;5012451;28;20034;-42
2021/07/07 10:41:45;;;;;;;6.75;5.90;;;;;;;;;;5012296;28;20536;-43
2021/07/07 10:44:12;;;;;;;7.40;6.18;;;;;;;;;;5012026;28;20033;-43
2021/07/07 10:47:00;;;;;;;6.63;6.03;;;;;;;;;;5012169;28;20030;-43
2021/07/07 10:49:39;;;;;;;6.45;5.85;;;;;;;;;;5012363;28;20436;-42
2021/07/07 10:52:07;;;;;;;7.63;6.30;;;;;;;;;;5012016;28;20567;-42
2021/07/07 10:54:37;;;;;;;10.25;6.10;;;;;;;;;;5012027;28;20034;-44
2021/07/07 10:57:04;;;;;;;8.20;6.43;;;;;;;;;;5011937;28;20037;-43
2021/07/07 10:59:33;;;;;;;7.18;6.22;;;;;;;;;;5011878;28;20112;-43
2021/07/07 11:02:03;;;;;;;8.63;6.30;;;;;;;;;;5011830;28;20045;-42
2021/07/07 11:04:36;;;;;;;8.75;6.72;;;;;;;;;;5011787;28;20117;-42
2021/07/07 11:07:21;;;;;;;7.55;5.78;;;;;;;;;;5004334;28;20021;-42
2021/07/07 11:09:52;;;;;;;7.30;6.00;;;;;;;;;;5033649;28;20033;-42
2021/07/07 11:12:19;;;;;;;7.95;6.68;;;;;;;;;;5033637;28;20384;-43
2021/07/07 11:15:18;;;;;;;8.90;6.95;;;;;;;;;;5033147;28;20121;-43
2021/07/07 11:17:44;;;;;;;;;;;;;;;;;;5011967;28;20537;-42
2021/07/07 11:20:10;;;;;;;6.78;6.10;;;;;;;;;;5011621;28;19905;-42
2021/07/07 11:22:37;;;;;;;10.35;6.85;;;;;;;;;;5011469;28;20084;-41
2021/07/07 11:25:08;;;;;;;9.50;7.03;;;;;;;;;;5011487;28;20091;-43
2021/07/07 11:27:34;;;;;;;7.70;6.93;;;;;;;;;;5011583;28;20044;-43
2021/07/07 11:30:01;;;;;;;7.45;6.38;;;;;;;;;;5011431;28;20116;-44
2021/07/07 11:32:30;;;;;;;15.50;6.88;;;;;;;;;;5011491;28;20018;-43
2021/07/07 11:34:57;;;;;;;10.38;6.60;;;;;;;;;;5011463;28;20410;-42
2021/07/07 11:37:25;;;;;;;7.13;6.05;;;;;;;;;;5011375;28;20034;-44
2021/07/07 11:40:04;;;;;;;7.07;5.70;;;;;;;;;;5011575;28;20088;-43
2021/07/07 11:42:31;;;;;;;7.18;5.47;;;;;;;;;;5011583;28;20034;-44
2021/07/07 11:44:57;;;;;;;6.65;6.00;;;;;;;;;;5011252;28;20088;-43
2021/07/07 11:47:28;;;;;;;7.30;6.57;;;;;;;;;;5011419;28;20097;-42
2021/07/07 11:50:07;;;;;;;11.40;6.50;;;;;;;;;;5011390;28;20108;-42
2021/07/07 11:52:33;;;;;;;8.60;6.40;;;;;;;;;;5015435;28;20381;-42
2021/07/07 11:55:00;;;;;;;7.97;5.15;;;;;;;;;;5033122;28;20449;-44
2021/07/07 11:57:29;;;;;;;6.75;6.13;;;;;;;;;;5033050;28;20041;-43
2021/07/07 11:59:55;;;;;;;10.48;6.70;;;;;;;;;;5033340;28;20436;-42
2021/07/07 12:02:21;;;;;;;6.38;5.75;;;;;;;;;;5032956;28;20026;-44
2021/07/07 12:04:47;;;;;;;8.85;6.07;;;;;;;;;;5032939;28;20056;-44
2021/07/07 12:07:14;;;;;;;7.55;6.10;;;;;;;;;;5032952;28;20026;-42
2021/07/07 12:09:40;;;;;;;7.35;6.22;;;;;;;;;;5033133;28;20068;-44
2021/07/07 12:12:07;;;;;;;9.55;6.15;;;;;;;;;;5033158;28;20025;-42
2021/07/07 12:14:35;;;;;;;6.85;6.05;;;;;;;;;;5032795;28;20068;-43
2021/07/07 12:17:01;;;;;;;7.40;6.30;;;;;;;;;;5032756;28;20042;-43
2021/07/07 12:19:28;;;;;;;8.45;6.10;;;;;;;;;;5032905;28;20021;-43
2021/07/07 12:21:56;;;;;;;8.02;6.20;;;;;;;;;;5032754;28;20067;-43
2021/07/07 12:24:23;;;;;;;7.93;5.65;;;;;;;;;;5033077;28;20026;-45
2021/07/07 12:26:51;;;;;;;8.15;6.07;;;;;;;;;;5032746;28;20104;-42
2021/07/07 12:29:19;;;;;;;9.68;5.70;;;;;;;;;;5032869;28;20470;-42
2021/07/07 12:31:45;;;;;;;8.60;6.07;;;;;;;;;;5032911;28;20031;-43
2021/07/07 12:34:13;;;;;;;10.20;6.32;;;;;;;;;;5032796;28;20021;-42
2021/07/07 12:36:40;;;;;;;7.78;6.75;;;;;;;;;;5035544;28;20429;-44
2021/07/07 12:39:14;;;;;;;7.72;6.20;;;;;;;;;;5036588;28;20105;-42
2021/07/07 12:41:42;;;;;;;6.18;5.20;;;;;;;;;;5036515;28;20021;-41
2021/07/07 12:46:47;;;;;;;6.82;5.70;;;;;;;;;;5036120;28;20374;-42
2021/07/07 12:49:21;;;;;;;6.03;5.43;;;;;;;;;;5035947;28;20029;-43
2021/07/07 12:51:48;;;;;;;6.43;5.70;;;;;;;;;;5036321;28;20045;-42
2021/07/07 12:54:18;;;;;;;8.18;5.55;;;;;;;;;;5036042;28;20025;-42
2021/07/07 12:56:59;;;;;;;6.82;5.85;;;;;;;;;;5036210;28;20025;-43
2021/07/07 12:59:26;;;;;;;6.18;5.57;;;;;;;;;;5035956;28;20037;-42
2021/07/07 13:02:05;;;;;;;9.23;5.45;;;;;;;;;;5035782;28;20026;-43
2021/07/07 13:04:31;;;;;;;6.00;5.40;;;;;;;;;;5036030;28;20029;-44
2021/07/07 13:07:10;;;;;;;10.43;5.75;;;;;;;;;;5035878;28;20029;-43
2021/07/07 13:09:37;;;;;;;6.38;5.68;;;;;;;;;;5036050;28;20064;-42
2021/07/07 13:12:04;;;;;;;7.85;5.60;;;;;;;;;;5035789;28;20025;-42
2021/07/07 13:14:30;;;;;;;5.88;5.28;;;;;;;;;;5035331;28;20060;-44
2021/07/07 13:16:56;;;;;;;7.15;5.40;;;;;;;;;;5035473;28;20048;-44
2021/07/07 13:19:29;;;;;;;6.72;5.90;;;;;;;;;;5034352;28;20036;-43
2021/07/07 13:21:59;;;;;;;6.05;5.45;;;;;;;;;;5035571;28;20025;-44
2021/07/07 13:24:27;;;;;;;6.22;5.13;;;;;;;;;;5035426;28;20037;-44
2021/07/07 13:26:56;;;;;;;8.20;5.55;;;;;;;;;;5035363;28;20022;-44
2021/07/07 13:29:44;;;;;;;7.15;5.68;;;;;;;;;;5035435;28;20044;-44
2021/07/07 13:32:10;;;;;;;12.38;5.45;;;;;;;;;;5035336;28;20100;-42
2021/07/07 13:34:48;;;;;;;6.25;5.07;;;;;;;;;;5035262;28;20030;-42
2021/07/07 13:37:15;;;;;;;8.90;5.57;;;;;;;;;;5035251;28;20037;-41
2021/07/07 13:39:42;;;;;;;6.50;5.90;;;;;;;;;;5035187;28;20028;-43
2021/07/07 13:42:08;;;;;;;7.22;4.75;;;;;;;;;;5035421;28;20029;-44
2021/07/07 13:44:34;;;;;;;10.68;5.43;;;;;;;;;;5035095;28;20053;-44
2021/07/07 13:47:01;;;;;;;5.32;4.68;;;;;;;;;;5034913;28;20022;-43
2021/07/07 13:49:27;;;;;;;5.70;4.90;;;;;;;;;;5035410;28;20025;-44
2021/07/07 13:51:53;;;;;;;6.82;4.78;;;;;;;;;;5035143;28;20026;-44
2021/07/07 13:54:19;;;;;;;5.97;4.88;;;;;;;;;;5035122;28;20025;-43
2021/07/07 13:56:45;;;;;;;5.63;5.00;;;;;;;;;;5034835;28;20033;-43
2021/07/07 13:59:11;;;;;;;5.47;4.85;;;;;;;;;;5034961;28;20052;-44
2021/07/07 14:01:38;;;;;;;6.45;4.82;;;;;;;;;;5034954;28;20079;-42
2021/07/07 14:04:04;;;;;;;6.70;5.00;;;;;;;;;;5034726;28;20533;-43
2021/07/07 14:06:31;;;;;;;5.35;4.85;;;;;;;;;;5034603;28;20115;-44
2021/07/07 14:08:58;;;;;;;6.53;5.00;;;;;;;;;;5033362;28;20533;-42
2021/07/07 14:11:24;;;;;;;5.15;4.47;;;;;;;;;;5034427;28;20060;-41
2021/07/07 14:13:50;;;;;;;6.72;6.13;;;;;;;;;;5034874;28;20026;-43
2021/07/07 14:16:16;;;;;;;5.95;5.35;;;;;;;;;;5034389;28;20135;-44
2021/07/07 14:18:42;;;;;;;8.77;5.53;;;;;;;;;;5034442;28;20239;-44
2021/07/07 14:21:08;;;;;;;8.75;5.15;;;;;;;;;;5034511;28;20029;-44
2021/07/07 14:23:34;;;;;;;6.80;5.50;;;;;;;;;;5034370;28;20043;-43
2021/07/07 14:26:01;;;;;;;9.63;5.30;;;;;;;;;;5034310;28;20075;-44
2021/07/07 14:28:27;;;;;;;6.05;5.15;;;;;;;;;;5034318;28;20060;-43
2021/07/07 14:30:53;;;;;;;8.55;5.50;;;;;;;;;;5034445;28;20478;-44
2021/07/07 14:33:19;;;;;;;9.30;5.90;;;;;;;;;;5034229;28;20018;-43
2021/07/07 14:35:45;;;;;;;7.78;5.78;;;;;;;;;;5034248;28;20025;-42